sensor_id;sensor_type;location;lat;lon;timestamp;temperature;humidity
55213;DHT22;41083;52.932;6.674;2023-02-15T00:01:09;2.60;99.90
55213;DHT22;41083;52.932;6.674;2023-02-15T00:03:35;2.60;99.90
55213;DHT22;41083;52.932;6.674;2023-02-15T00:06:02;2.60;99.90
55213;DHT22;41083;52.932;6.674;2023-02-15T00:08:27;2.60;99.90
55213;DHT22;41083;52.932;6.674;2023-02-15T00:10:53;2.50;99.90
55213;DHT22;41083;52.932;6.674;2023-02-15T00:13:19;2.50;99.90
55213;DHT22;41083;52.932;6.674;2023-02-15T00:15:44;2.50;99.90
55213;DHT22;41083;52.932;6.674;2023-02-15T00:18:10;2.60;99.90
55213;DHT22;41083;52.932;6.674;2023-02-15T00:20:35;2.50;99.90
55213;DHT22;41083;52.932;6.674;2023-02-15T00:23:01;2.50;99.90
55213;DHT22;41083;52.932;6.674;2023-02-15T00:25:26;2.50;99.90
55213;DHT22;41083;52.932;6.674;2023-02-15T00:27:52;2.50;99.90
55213;DHT22;41083;52.932;6.674;2023-02-15T00:30:18;2.50;99.90
55213;DHT22;41083;52.932;6.674;2023-02-15T00:32:43;2.50;99.90
55213;DHT22;41083;52.932;6.674;2023-02-15T00:35:09;2.40;99.90
55213;DHT22;41083;52.932;6.674;2023-02-15T00:37:35;2.40;99.90
55213;DHT22;41083;52.932;6.674;2023-02-15T00:40:01;2.40;99.90
55213;DHT22;41083;52.932;6.674;2023-02-15T00:42:26;2.40;99.90
55213;DHT22;41083;52.932;6.674;2023-02-15T00:44:52;2.40;99.90
55213;DHT22;41083;52.932;6.674;2023-02-15T00:47:18;2.30;99.90
55213;DHT22;41083;52.932;6.674;2023-02-15T00:49:43;2.30;99.90
55213;DHT22;41083;52.932;6.674;2023-02-15T00:52:09;2.30;99.90
55213;DHT22;41083;52.932;6.674;2023-02-15T00:54:35;2.30;99.90
55213;DHT22;41083;52.932;6.674;2023-02-15T00:57:01;2.30;99.90
55213;DHT22;41083;52.932;6.674;2023-02-15T00:59:26;2.30;99.90
55213;DHT22;41083;52.932;6.674;2023-02-15T01:01:52;2.30;99.90
55213;DHT22;41083;52.932;6.674;2023-02-15T01:04:17;2.40;99.90
55213;DHT22;41083;52.932;6.674;2023-02-15T01:06:43;2.30;99.90
55213;DHT22;41083;52.932;6.674;2023-02-15T01:09:08;2.30;99.90
55213;DHT22;41083;52.932;6.674;2023-02-15T01:11:34;2.30;99.90
55213;DHT22;41083;52.932;6.674;2023-02-15T01:14:00;2.40;99.90
55213;DHT22;41083;52.932;6.674;2023-02-15T01:16:27;2.40;99.90
55213;DHT22;41083;52.932;6.674;2023-02-15T01:18:53;2.30;99.90
55213;DHT22;41083;52.932;6.674;2023-02-15T01:21:21;2.30;99.90
55213;DHT22;41083;52.932;6.674;2023-02-15T01:23:47;2.30;99.90
55213;DHT22;41083;52.932;6.674;2023-02-15T01:26:13;2.30;99.90
55213;DHT22;41083;52.932;6.674;2023-02-15T01:28:40;2.30;99.90
55213;DHT22;41083;52.932;6.674;2023-02-15T01:31:11;2.20;99.90
55213;DHT22;41083;52.932;6.674;2023-02-15T01:33:37;2.30;99.90
55213;DHT22;41083;52.932;6.674;2023-02-15T01:36:04;2.30;99.90
55213;DHT22;41083;52.932;6.674;2023-02-15T01:38:30;2.30;99.90
55213;DHT22;41083;52.932;6.674;2023-02-15T01:40:55;2.20;99.90
55213;DHT22;41083;52.932;6.674;2023-02-15T01:43:42;2.30;99.90
55213;DHT22;41083;52.932;6.674;2023-02-15T01:46:09;2.30;99.90
55213;DHT22;41083;52.932;6.674;2023-02-15T01:48:41;2.20;99.90
55213;DHT22;41083;52.932;6.674;2023-02-15T01:51:09;2.20;99.90
55213;DHT22;41083;52.932;6.674;2023-02-15T01:53:38;2.20;99.90
55213;DHT22;41083;52.932;6.674;2023-02-15T01:56:15;2.20;99.90
55213;DHT22;41083;52.932;6.674;2023-02-15T01:58:43;2.20;99.90
55213;DHT22;41083;52.932;6.674;2023-02-15T02:01:09;2.10;99.90
55213;DHT22;41083;52.932;6.674;2023-02-15T02:04:02;2.10;99.90
55213;DHT22;41083;52.932;6.674;2023-02-15T02:06:29;2.00;99.90
55213;DHT22;41083;52.932;6.674;2023-02-15T02:08:56;2.00;99.90
55213;DHT22;41083;52.932;6.674;2023-02-15T02:11:22;2.00;99.90
55213;DHT22;41083;52.932;6.674;2023-02-15T02:13:48;2.00;99.90
55213;DHT22;41083;52.932;6.674;2023-02-15T02:26:25;2.00;99.90
55213;DHT22;41083;52.932;6.674;2023-02-15T02:34:28;1.80;99.90
55213;DHT22;41083;52.932;6.674;2023-02-15T02:39:58;1.90;99.90
55213;DHT22;41083;52.932;6.674;2023-02-15T02:42:39;1.90;99.90
55213;DHT22;41083;52.932;6.674;2023-02-15T02:45:30;1.90;99.90
55213;DHT22;41083;52.932;6.674;2023-02-15T02:48:14;1.90;99.90
55213;DHT22;41083;52.932;6.674;2023-02-15T02:50:41;1.90;99.90
55213;DHT22;41083;52.932;6.674;2023-02-15T02:53:07;1.80;99.90
55213;DHT22;41083;52.932;6.674;2023-02-15T02:55:47;1.80;99.90
55213;DHT22;41083;52.932;6.674;2023-02-15T02:58:28;1.80;99.90
55213;DHT22;41083;52.932;6.674;2023-02-15T03:00:57;1.80;99.90
55213;DHT22;41083;52.932;6.674;2023-02-15T03:04:24;1.80;99.90
55213;DHT22;41083;52.932;6.674;2023-02-15T03:06:37;1.80;99.90
55213;DHT22;41083;52.932;6.674;2023-02-15T03:09:18;1.80;99.90
55213;DHT22;41083;52.932;6.674;2023-02-15T03:11:47;1.80;99.90
55213;DHT22;41083;52.932;6.674;2023-02-15T03:14:15;1.90;99.90
55213;DHT22;41083;52.932;6.674;2023-02-15T03:16:42;1.90;99.90
55213;DHT22;41083;52.932;6.674;2023-02-15T03:19:13;1.90;99.90
55213;DHT22;41083;52.932;6.674;2023-02-15T03:21:49;1.90;99.90
55213;DHT22;41083;52.932;6.674;2023-02-15T03:24:26;1.90;99.90
55213;DHT22;41083;52.932;6.674;2023-02-15T03:26:55;1.80;99.90
55213;DHT22;41083;52.932;6.674;2023-02-15T03:29:23;1.80;99.90
55213;DHT22;41083;52.932;6.674;2023-02-15T03:31:53;1.70;99.90
55213;DHT22;41083;52.932;6.674;2023-02-15T03:34:20;1.80;99.90
55213;DHT22;41083;52.932;6.674;2023-02-15T03:37:00;1.70;99.90
55213;DHT22;41083;52.932;6.674;2023-02-15T03:42:14;1.70;99.90
55213;DHT22;41083;52.932;6.674;2023-02-15T03:44:55;1.70;99.90
55213;DHT22;41083;52.932;6.674;2023-02-15T03:47:27;1.80;99.90
55213;DHT22;41083;52.932;6.674;2023-02-15T03:50:11;1.70;99.90
55213;DHT22;41083;52.932;6.674;2023-02-15T03:52:58;1.80;99.90
55213;DHT22;41083;52.932;6.674;2023-02-15T03:55:25;1.80;99.90
55213;DHT22;41083;52.932;6.674;2023-02-15T03:57:52;1.80;99.90
55213;DHT22;41083;52.932;6.674;2023-02-15T04:00:38;1.80;99.90
55213;DHT22;41083;52.932;6.674;2023-02-15T04:03:36;1.80;99.90
55213;DHT22;41083;52.932;6.674;2023-02-15T04:06:04;1.80;99.90
55213;DHT22;41083;52.932;6.674;2023-02-15T04:08:30;1.70;99.90
55213;DHT22;41083;52.932;6.674;2023-02-15T04:11:14;1.70;99.90
55213;DHT22;41083;52.932;6.674;2023-02-15T04:13:40;1.80;99.90
55213;DHT22;41083;52.932;6.674;2023-02-15T04:16:06;1.80;99.90
55213;DHT22;41083;52.932;6.674;2023-02-15T04:18:40;1.80;99.90
55213;DHT22;41083;52.932;6.674;2023-02-15T04:21:27;1.80;99.90
55213;DHT22;41083;52.932;6.674;2023-02-15T04:24:11;1.80;99.90
55213;DHT22;41083;52.932;6.674;2023-02-15T04:26:56;1.80;99.90
55213;DHT22;41083;52.932;6.674;2023-02-15T04:29:23;1.90;99.90
55213;DHT22;41083;52.932;6.674;2023-02-15T04:31:50;1.80;99.90
55213;DHT22;41083;52.932;6.674;2023-02-15T04:34:16;1.80;99.90
55213;DHT22;41083;52.932;6.674;2023-02-15T04:36:41;1.80;99.90
55213;DHT22;41083;52.932;6.674;2023-02-15T04:39:08;1.80;99.90
55213;DHT22;41083;52.932;6.674;2023-02-15T04:41:34;1.80;99.90
55213;DHT22;41083;52.932;6.674;2023-02-15T04:44:00;1.70;99.90
55213;DHT22;41083;52.932;6.674;2023-02-15T04:46:27;1.70;99.90
55213;DHT22;41083;52.932;6.674;2023-02-15T04:48:53;1.70;99.90
55213;DHT22;41083;52.932;6.674;2023-02-15T04:51:19;1.70;99.90
55213;DHT22;41083;52.932;6.674;2023-02-15T04:53:44;1.70;99.90
55213;DHT22;41083;52.932;6.674;2023-02-15T04:56:10;1.70;99.90
55213;DHT22;41083;52.932;6.674;2023-02-15T04:58:36;1.70;99.90
55213;DHT22;41083;52.932;6.674;2023-02-15T05:01:02;1.80;99.90
55213;DHT22;41083;52.932;6.674;2023-02-15T05:03:27;1.80;99.90
55213;DHT22;41083;52.932;6.674;2023-02-15T05:05:53;1.80;99.90
55213;DHT22;41083;52.932;6.674;2023-02-15T05:08:19;1.80;99.90
55213;DHT22;41083;52.932;6.674;2023-02-15T05:10:44;1.90;99.90
55213;DHT22;41083;52.932;6.674;2023-02-15T05:13:10;1.90;99.90
55213;DHT22;41083;52.932;6.674;2023-02-15T05:15:35;1.90;99.90
55213;DHT22;41083;52.932;6.674;2023-02-15T05:18:01;1.90;99.90
55213;DHT22;41083;52.932;6.674;2023-02-15T05:20:27;1.90;99.90
55213;DHT22;41083;52.932;6.674;2023-02-15T05:22:56;1.90;99.90
55213;DHT22;41083;52.932;6.674;2023-02-15T05:25:21;1.80;99.90
55213;DHT22;41083;52.932;6.674;2023-02-15T05:28:09;1.80;99.90
55213;DHT22;41083;52.932;6.674;2023-02-15T05:30:48;1.80;99.90
55213;DHT22;41083;52.932;6.674;2023-02-15T05:33:14;1.80;99.90
55213;DHT22;41083;52.932;6.674;2023-02-15T05:35:40;1.80;99.90
55213;DHT22;41083;52.932;6.674;2023-02-15T05:38:06;1.80;99.90
55213;DHT22;41083;52.932;6.674;2023-02-15T05:40:31;1.90;99.90
55213;DHT22;41083;52.932;6.674;2023-02-15T05:42:57;1.80;99.90
55213;DHT22;41083;52.932;6.674;2023-02-15T05:45:23;1.90;99.90
55213;DHT22;41083;52.932;6.674;2023-02-15T05:47:49;1.80;99.90
55213;DHT22;41083;52.932;6.674;2023-02-15T05:50:14;1.80;99.90
55213;DHT22;41083;52.932;6.674;2023-02-15T05:52:40;1.80;99.90
55213;DHT22;41083;52.932;6.674;2023-02-15T05:55:06;1.70;99.90
55213;DHT22;41083;52.932;6.674;2023-02-15T05:57:34;1.70;99.90
55213;DHT22;41083;52.932;6.674;2023-02-15T06:00:01;1.70;99.90
55213;DHT22;41083;52.932;6.674;2023-02-15T06:02:33;1.80;99.90
55213;DHT22;41083;52.932;6.674;2023-02-15T06:04:59;1.80;99.90
55213;DHT22;41083;52.932;6.674;2023-02-15T06:07:25;1.80;99.90
55213;DHT22;41083;52.932;6.674;2023-02-15T06:09:51;1.90;99.90
55213;DHT22;41083;52.932;6.674;2023-02-15T06:12:16;1.90;99.90
55213;DHT22;41083;52.932;6.674;2023-02-15T06:14:42;1.90;99.90
55213;DHT22;41083;52.932;6.674;2023-02-15T06:17:07;1.90;99.90
55213;DHT22;41083;52.932;6.674;2023-02-15T06:19:33;1.90;99.90
55213;DHT22;41083;52.932;6.674;2023-02-15T06:21:59;2.00;99.90
55213;DHT22;41083;52.932;6.674;2023-02-15T06:24:24;2.00;99.90
55213;DHT22;41083;52.932;6.674;2023-02-15T06:26:50;2.00;99.90
55213;DHT22;41083;52.932;6.674;2023-02-15T06:29:15;2.00;99.90
55213;DHT22;41083;52.932;6.674;2023-02-15T06:31:41;2.00;99.90
55213;DHT22;41083;52.932;6.674;2023-02-15T06:34:07;2.10;99.90
55213;DHT22;41083;52.932;6.674;2023-02-15T06:36:33;2.10;99.90
55213;DHT22;41083;52.932;6.674;2023-02-15T06:38:58;2.10;99.90
55213;DHT22;41083;52.932;6.674;2023-02-15T06:41:24;2.10;99.90
55213;DHT22;41083;52.932;6.674;2023-02-15T06:43:50;2.20;99.90
55213;DHT22;41083;52.932;6.674;2023-02-15T06:46:16;2.20;99.90
55213;DHT22;41083;52.932;6.674;2023-02-15T06:48:42;2.20;99.90
55213;DHT22;41083;52.932;6.674;2023-02-15T06:51:07;2.20;99.90
55213;DHT22;41083;52.932;6.674;2023-02-15T06:53:33;2.20;99.90
55213;DHT22;41083;52.932;6.674;2023-02-15T06:56:03;2.20;99.90
55213;DHT22;41083;52.932;6.674;2023-02-15T06:58:32;2.20;99.90
55213;DHT22;41083;52.932;6.674;2023-02-15T07:00:58;2.20;99.90
55213;DHT22;41083;52.932;6.674;2023-02-15T07:03:23;2.20;99.90
55213;DHT22;41083;52.932;6.674;2023-02-15T07:05:54;2.20;99.90
55213;DHT22;41083;52.932;6.674;2023-02-15T07:08:20;2.20;99.90
55213;DHT22;41083;52.932;6.674;2023-02-15T07:10:45;2.20;99.90
55213;DHT22;41083;52.932;6.674;2023-02-15T07:13:11;2.20;99.90
55213;DHT22;41083;52.932;6.674;2023-02-15T07:15:37;2.30;99.90
55213;DHT22;41083;52.932;6.674;2023-02-15T07:18:03;2.30;99.90
55213;DHT22;41083;52.932;6.674;2023-02-15T07:20:28;2.30;99.90
55213;DHT22;41083;52.932;6.674;2023-02-15T07:22:54;2.30;99.90
55213;DHT22;41083;52.932;6.674;2023-02-15T07:25:20;2.30;99.90
55213;DHT22;41083;52.932;6.674;2023-02-15T07:27:46;2.30;99.90
55213;DHT22;41083;52.932;6.674;2023-02-15T07:30:14;2.30;99.90
55213;DHT22;41083;52.932;6.674;2023-02-15T07:32:40;2.30;99.90
55213;DHT22;41083;52.932;6.674;2023-02-15T07:35:25;2.30;99.90
55213;DHT22;41083;52.932;6.674;2023-02-15T07:37:51;2.40;99.90
55213;DHT22;41083;52.932;6.674;2023-02-15T07:40:18;2.40;99.90
55213;DHT22;41083;52.932;6.674;2023-02-15T07:42:44;2.40;99.90
55213;DHT22;41083;52.932;6.674;2023-02-15T07:45:09;2.40;99.90
55213;DHT22;41083;52.932;6.674;2023-02-15T07:47:35;2.40;99.90
55213;DHT22;41083;52.932;6.674;2023-02-15T07:50:01;2.40;99.90
55213;DHT22;41083;52.932;6.674;2023-02-15T07:52:27;2.50;99.90
55213;DHT22;41083;52.932;6.674;2023-02-15T07:54:53;2.50;99.90
55213;DHT22;41083;52.932;6.674;2023-02-15T07:57:18;2.50;99.90
55213;DHT22;41083;52.932;6.674;2023-02-15T07:59:44;2.50;99.90
55213;DHT22;41083;52.932;6.674;2023-02-15T08:02:10;2.50;99.90
55213;DHT22;41083;52.932;6.674;2023-02-15T08:04:36;2.60;99.90
55213;DHT22;41083;52.932;6.674;2023-02-15T08:07:02;2.60;99.90
55213;DHT22;41083;52.932;6.674;2023-02-15T08:09:27;2.60;99.90
55213;DHT22;41083;52.932;6.674;2023-02-15T08:11:53;2.60;99.90
55213;DHT22;41083;52.932;6.674;2023-02-15T08:14:20;2.60;99.90
55213;DHT22;41083;52.932;6.674;2023-02-15T08:16:55;2.60;99.90
55213;DHT22;41083;52.932;6.674;2023-02-15T08:19:26;2.70;99.90
55213;DHT22;41083;52.932;6.674;2023-02-15T08:22:00;2.70;99.90
55213;DHT22;41083;52.932;6.674;2023-02-15T08:24:30;2.70;99.90
55213;DHT22;41083;52.932;6.674;2023-02-15T08:26:56;2.70;99.90
55213;DHT22;41083;52.932;6.674;2023-02-15T08:29:27;2.80;99.90
55213;DHT22;41083;52.932;6.674;2023-02-15T08:31:55;2.80;99.90
55213;DHT22;41083;52.932;6.674;2023-02-15T08:34:21;2.80;99.90
55213;DHT22;41083;52.932;6.674;2023-02-15T08:36:47;2.90;99.90
55213;DHT22;41083;52.932;6.674;2023-02-15T08:39:13;2.90;99.90
55213;DHT22;41083;52.932;6.674;2023-02-15T08:41:42;2.90;99.90
55213;DHT22;41083;52.932;6.674;2023-02-15T08:44:09;2.90;99.90
55213;DHT22;41083;52.932;6.674;2023-02-15T08:46:37;3.00;99.90
55213;DHT22;41083;52.932;6.674;2023-02-15T08:49:03;3.00;99.90
55213;DHT22;41083;52.932;6.674;2023-02-15T08:51:32;3.10;99.90
55213;DHT22;41083;52.932;6.674;2023-02-15T08:54:00;3.10;99.90
55213;DHT22;41083;52.932;6.674;2023-02-15T08:56:28;3.10;99.90
55213;DHT22;41083;52.932;6.674;2023-02-15T08:58:54;3.10;99.90
55213;DHT22;41083;52.932;6.674;2023-02-15T09:01:23;3.20;99.90
55213;DHT22;41083;52.932;6.674;2023-02-15T09:03:51;3.20;99.90
55213;DHT22;41083;52.932;6.674;2023-02-15T09:06:20;3.20;99.90
55213;DHT22;41083;52.932;6.674;2023-02-15T09:08:46;3.30;99.90
55213;DHT22;41083;52.932;6.674;2023-02-15T09:11:17;3.30;99.90
55213;DHT22;41083;52.932;6.674;2023-02-15T09:13:51;3.30;99.90
55213;DHT22;41083;52.932;6.674;2023-02-15T09:16:18;3.40;99.90
55213;DHT22;41083;52.932;6.674;2023-02-15T09:18:43;3.40;99.90
55213;DHT22;41083;52.932;6.674;2023-02-15T09:21:14;3.50;99.90
55213;DHT22;41083;52.932;6.674;2023-02-15T09:23:42;3.40;99.90
55213;DHT22;41083;52.932;6.674;2023-02-15T09:26:11;3.50;99.90
55213;DHT22;41083;52.932;6.674;2023-02-15T09:28:37;3.50;99.90
55213;DHT22;41083;52.932;6.674;2023-02-15T09:31:16;3.60;99.90
55213;DHT22;41083;52.932;6.674;2023-02-15T09:33:43;3.60;99.90
55213;DHT22;41083;52.932;6.674;2023-02-15T09:36:40;3.60;99.90
55213;DHT22;41083;52.932;6.674;2023-02-15T09:39:18;3.70;99.90
55213;DHT22;41083;52.932;6.674;2023-02-15T09:42:00;3.70;99.90
55213;DHT22;41083;52.932;6.674;2023-02-15T09:53:25;3.90;99.90
55213;DHT22;41083;52.932;6.674;2023-02-15T10:04:38;4.10;99.90
55213;DHT22;41083;52.932;6.674;2023-02-15T10:07:18;4.20;99.90
55213;DHT22;41083;52.932;6.674;2023-02-15T10:18:24;4.40;99.90
55213;DHT22;41083;52.932;6.674;2023-02-15T10:21:07;4.50;99.90
55213;DHT22;41083;52.932;6.674;2023-02-15T10:26:43;4.50;99.90
55213;DHT22;41083;52.932;6.674;2023-02-15T10:29:35;4.60;99.90
55213;DHT22;41083;52.932;6.674;2023-02-15T10:32:15;4.70;99.90
55213;DHT22;41083;52.932;6.674;2023-02-15T10:35:04;4.70;99.90
55213;DHT22;41083;52.932;6.674;2023-02-15T10:52:27;5.20;99.90
55213;DHT22;41083;52.932;6.674;2023-02-15T10:54:36;5.30;99.90
55213;DHT22;41083;52.932;6.674;2023-02-15T11:00:20;5.40;99.90
55213;DHT22;41083;52.932;6.674;2023-02-15T11:05:35;5.60;99.90
55213;DHT22;41083;52.932;6.674;2023-02-15T11:08:07;5.70;99.90
55213;DHT22;41083;52.932;6.674;2023-02-15T11:10:50;5.80;99.90
55213;DHT22;41083;52.932;6.674;2023-02-15T11:13:19;5.80;99.90
55213;DHT22;41083;52.932;6.674;2023-02-15T11:15:59;5.90;99.90
55213;DHT22;41083;52.932;6.674;2023-02-15T11:18:58;5.90;99.90
55213;DHT22;41083;52.932;6.674;2023-02-15T11:21:43;6.00;99.90
55213;DHT22;41083;52.932;6.674;2023-02-15T11:24:14;6.10;99.90
55213;DHT22;41083;52.932;6.674;2023-02-15T11:29:37;6.20;99.90
55213;DHT22;41083;52.932;6.674;2023-02-15T11:32:26;6.30;99.90
55213;DHT22;41083;52.932;6.674;2023-02-15T11:34:59;6.40;99.90
55213;DHT22;41083;52.932;6.674;2023-02-15T11:40:35;6.50;99.90
55213;DHT22;41083;52.932;6.674;2023-02-15T11:43:24;6.60;99.90
55213;DHT22;41083;52.932;6.674;2023-02-15T11:45:52;6.60;99.90
55213;DHT22;41083;52.932;6.674;2023-02-15T11:48:17;6.70;99.90
55213;DHT22;41083;52.932;6.674;2023-02-15T11:50:44;6.80;99.90
55213;DHT22;41083;52.932;6.674;2023-02-15T11:53:18;6.90;99.90
55213;DHT22;41083;52.932;6.674;2023-02-15T11:55:48;6.90;99.90
55213;DHT22;41083;52.932;6.674;2023-02-15T12:01:18;7.20;99.90
55213;DHT22;41083;52.932;6.674;2023-02-15T12:03:47;7.30;99.90
55213;DHT22;41083;52.932;6.674;2023-02-15T12:06:35;7.30;99.90
55213;DHT22;41083;52.932;6.674;2023-02-15T12:11:45;7.40;99.90
55213;DHT22;41083;52.932;6.674;2023-02-15T12:14:12;7.40;99.90
55213;DHT22;41083;52.932;6.674;2023-02-15T12:16:46;7.40;99.90
55213;DHT22;41083;52.932;6.674;2023-02-15T12:19:32;7.50;99.90
55213;DHT22;41083;52.932;6.674;2023-02-15T12:22:02;7.50;99.90
55213;DHT22;41083;52.932;6.674;2023-02-15T12:24:38;7.40;99.90
55213;DHT22;41083;52.932;6.674;2023-02-15T12:27:17;7.50;99.90
55213;DHT22;41083;52.932;6.674;2023-02-15T12:30:06;7.40;99.90
55213;DHT22;41083;52.932;6.674;2023-02-15T12:32:35;7.50;99.90
55213;DHT22;41083;52.932;6.674;2023-02-15T12:35:08;7.50;99.90
55213;DHT22;41083;52.932;6.674;2023-02-15T12:37:35;7.60;99.90
55213;DHT22;41083;52.932;6.674;2023-02-15T12:40:22;7.60;99.90
55213;DHT22;41083;52.932;6.674;2023-02-15T12:42:48;7.60;99.90
55213;DHT22;41083;52.932;6.674;2023-02-15T12:45:26;7.70;99.90
55213;DHT22;41083;52.932;6.674;2023-02-15T12:48:21;7.70;99.90
55213;DHT22;41083;52.932;6.674;2023-02-15T12:50:49;7.70;99.90
55213;DHT22;41083;52.932;6.674;2023-02-15T12:53:22;7.70;99.90
55213;DHT22;41083;52.932;6.674;2023-02-15T12:56:01;7.70;99.90
55213;DHT22;41083;52.932;6.674;2023-02-15T12:58:34;7.70;99.90
55213;DHT22;41083;52.932;6.674;2023-02-15T13:01:14;7.80;99.90
55213;DHT22;41083;52.932;6.674;2023-02-15T13:04:06;7.80;99.90
55213;DHT22;41083;52.932;6.674;2023-02-15T13:06:48;7.80;99.90
55213;DHT22;41083;52.932;6.674;2023-02-15T13:09:17;7.90;99.90
55213;DHT22;41083;52.932;6.674;2023-02-15T13:11:44;7.90;99.90
55213;DHT22;41083;52.932;6.674;2023-02-15T13:14:20;7.90;99.90
55213;DHT22;41083;52.932;6.674;2023-02-15T13:16:50;7.90;99.90
55213;DHT22;41083;52.932;6.674;2023-02-15T13:19:28;7.90;99.90
55213;DHT22;41083;52.932;6.674;2023-02-15T13:21:54;7.90;99.90
55213;DHT22;41083;52.932;6.674;2023-02-15T13:24:24;7.90;99.90
55213;DHT22;41083;52.932;6.674;2023-02-15T13:26:52;8.00;99.90
55213;DHT22;41083;52.932;6.674;2023-02-15T13:29:27;8.00;99.90
55213;DHT22;41083;52.932;6.674;2023-02-15T13:31:54;8.00;99.90
55213;DHT22;41083;52.932;6.674;2023-02-15T13:39:40;8.00;99.90
55213;DHT22;41083;52.932;6.674;2023-02-15T13:42:33;8.10;99.90
55213;DHT22;41083;52.932;6.674;2023-02-15T13:48:02;8.10;99.90
55213;DHT22;41083;52.932;6.674;2023-02-15T13:50:55;8.10;99.90
55213;DHT22;41083;52.932;6.674;2023-02-15T13:56:58;8.10;99.90
55213;DHT22;41083;52.932;6.674;2023-02-15T13:59:47;8.10;99.90
55213;DHT22;41083;52.932;6.674;2023-02-15T14:02:39;8.10;99.90
55213;DHT22;41083;52.932;6.674;2023-02-15T14:07:52;8.20;99.90
55213;DHT22;41083;52.932;6.674;2023-02-15T14:10:57;8.20;99.90
55213;DHT22;41083;52.932;6.674;2023-02-15T14:13:48;8.20;99.90
55213;DHT22;41083;52.932;6.674;2023-02-15T14:21:39;8.30;99.90
55213;DHT22;41083;52.932;6.674;2023-02-15T14:24:30;8.30;99.90
55213;DHT22;41083;52.932;6.674;2023-02-15T14:30:04;8.30;99.90
55213;DHT22;41083;52.932;6.674;2023-02-15T14:32:45;8.30;99.90
55213;DHT22;41083;52.932;6.674;2023-02-15T14:35:15;8.30;99.90
55213;DHT22;41083;52.932;6.674;2023-02-15T14:37:55;8.30;99.90
55213;DHT22;41083;52.932;6.674;2023-02-15T14:40:51;8.20;99.90
55213;DHT22;41083;52.932;6.674;2023-02-15T14:46:30;8.20;99.90
55213;DHT22;41083;52.932;6.674;2023-02-15T14:49:41;8.10;99.90
55213;DHT22;41083;52.932;6.674;2023-02-15T15:02:26;8.10;99.90
55213;DHT22;41083;52.932;6.674;2023-02-15T15:10:23;8.10;99.90
55213;DHT22;41083;52.932;6.674;2023-02-15T15:12:55;8.10;99.90
55213;DHT22;41083;52.932;6.674;2023-02-15T15:18:06;8.00;99.90
55213;DHT22;41083;52.932;6.674;2023-02-15T15:20:48;8.00;99.90
55213;DHT22;41083;52.932;6.674;2023-02-15T15:25:47;8.00;99.90
55213;DHT22;41083;52.932;6.674;2023-02-15T15:50:15;7.80;99.90
55213;DHT22;41083;52.932;6.674;2023-02-15T15:52:57;7.80;99.90
55213;DHT22;41083;52.932;6.674;2023-02-15T15:55:25;7.70;99.90
55213;DHT22;41083;52.932;6.674;2023-02-15T15:58:02;7.70;99.90
55213;DHT22;41083;52.932;6.674;2023-02-15T16:00:42;7.70;99.90
55213;DHT22;41083;52.932;6.674;2023-02-15T16:03:21;7.70;99.90
55213;DHT22;41083;52.932;6.674;2023-02-15T16:05:47;7.60;99.90
55213;DHT22;41083;52.932;6.674;2023-02-15T16:08:30;7.60;99.90
55213;DHT22;41083;52.932;6.674;2023-02-15T16:10:58;7.60;99.90
55213;DHT22;41083;52.932;6.674;2023-02-15T16:13:24;7.60;99.90
55213;DHT22;41083;52.932;6.674;2023-02-15T16:15:52;7.60;99.90
55213;DHT22;41083;52.932;6.674;2023-02-15T16:18:21;7.50;99.90
55213;DHT22;41083;52.932;6.674;2023-02-15T16:20:59;7.50;99.90
55213;DHT22;41083;52.932;6.674;2023-02-15T16:28:49;7.40;99.90
55213;DHT22;41083;52.932;6.674;2023-02-15T16:31:15;7.40;99.90
55213;DHT22;41083;52.932;6.674;2023-02-15T16:33:42;7.40;99.90
55213;DHT22;41083;52.932;6.674;2023-02-15T16:36:12;7.40;99.90
55213;DHT22;41083;52.932;6.674;2023-02-15T16:41:35;7.30;99.90
55213;DHT22;41083;52.932;6.674;2023-02-15T16:44:05;7.30;99.90
55213;DHT22;41083;52.932;6.674;2023-02-15T16:46:36;7.20;99.90
55213;DHT22;41083;52.932;6.674;2023-02-15T16:49:12;7.20;99.90
55213;DHT22;41083;52.932;6.674;2023-02-15T16:51:42;7.20;99.90
55213;DHT22;41083;52.932;6.674;2023-02-15T16:54:17;7.10;99.90
55213;DHT22;41083;52.932;6.674;2023-02-15T16:56:45;7.10;99.90
55213;DHT22;41083;52.932;6.674;2023-02-15T16:59:39;7.10;99.90
55213;DHT22;41083;52.932;6.674;2023-02-15T17:02:20;7.10;99.90
55213;DHT22;41083;52.932;6.674;2023-02-15T17:05:33;7.10;99.90
55213;DHT22;41083;52.932;6.674;2023-02-15T17:08:18;7.00;99.90
55213;DHT22;41083;52.932;6.674;2023-02-15T17:13:25;7.00;99.90
55213;DHT22;41083;52.932;6.674;2023-02-15T17:18:31;7.00;99.90
55213;DHT22;41083;52.932;6.674;2023-02-15T17:21:08;7.00;99.90
55213;DHT22;41083;52.932;6.674;2023-02-15T17:23:41;6.90;99.90
55213;DHT22;41083;52.932;6.674;2023-02-15T17:26:26;6.90;99.90
55213;DHT22;41083;52.932;6.674;2023-02-15T17:28:58;6.90;99.90
55213;DHT22;41083;52.932;6.674;2023-02-15T17:31:26;6.90;99.90
55213;DHT22;41083;52.932;6.674;2023-02-15T17:33:56;6.90;99.90
55213;DHT22;41083;52.932;6.674;2023-02-15T17:36:25;6.90;99.90
55213;DHT22;41083;52.932;6.674;2023-02-15T17:41:34;6.80;99.90
55213;DHT22;41083;52.932;6.674;2023-02-15T17:44:01;6.80;99.90
55213;DHT22;41083;52.932;6.674;2023-02-15T17:46:30;6.80;99.90
55213;DHT22;41083;52.932;6.674;2023-02-15T17:48:58;6.80;99.90
55213;DHT22;41083;52.932;6.674;2023-02-15T17:51:24;6.70;99.90
55213;DHT22;41083;52.932;6.674;2023-02-15T17:53:51;6.80;99.90
55213;DHT22;41083;52.932;6.674;2023-02-15T17:56:37;6.70;99.90
55213;DHT22;41083;52.932;6.674;2023-02-15T17:59:03;6.70;99.90
55213;DHT22;41083;52.932;6.674;2023-02-15T18:01:33;6.70;99.90
55213;DHT22;41083;52.932;6.674;2023-02-15T18:04:18;6.70;99.90
55213;DHT22;41083;52.932;6.674;2023-02-15T18:07:03;6.80;99.90
55213;DHT22;41083;52.932;6.674;2023-02-15T18:09:47;6.70;99.90
55213;DHT22;41083;52.932;6.674;2023-02-15T18:12:34;6.70;99.90
55213;DHT22;41083;52.932;6.674;2023-02-15T18:15:03;6.70;99.90
55213;DHT22;41083;52.932;6.674;2023-02-15T18:17:33;6.70;99.90
55213;DHT22;41083;52.932;6.674;2023-02-15T18:20:00;6.70;99.90
55213;DHT22;41083;52.932;6.674;2023-02-15T18:22:30;6.70;99.90
55213;DHT22;41083;52.932;6.674;2023-02-15T18:24:56;6.70;99.90
55213;DHT22;41083;52.932;6.674;2023-02-15T18:27:22;6.70;99.90
55213;DHT22;41083;52.932;6.674;2023-02-15T18:29:47;6.70;99.90
55213;DHT22;41083;52.932;6.674;2023-02-15T18:32:34;6.60;99.90
55213;DHT22;41083;52.932;6.674;2023-02-15T18:35:00;6.60;99.90
55213;DHT22;41083;52.932;6.674;2023-02-15T18:37:29;6.60;99.90
55213;DHT22;41083;52.932;6.674;2023-02-15T18:39:57;6.60;99.90
55213;DHT22;41083;52.932;6.674;2023-02-15T18:42:26;6.60;99.90
55213;DHT22;41083;52.932;6.674;2023-02-15T18:44:57;6.60;99.90
55213;DHT22;41083;52.932;6.674;2023-02-15T18:47:24;6.50;99.90
55213;DHT22;41083;52.932;6.674;2023-02-15T18:49:50;6.50;99.90
55213;DHT22;41083;52.932;6.674;2023-02-15T18:52:17;6.50;99.90
55213;DHT22;41083;52.932;6.674;2023-02-15T18:54:45;6.50;99.90
55213;DHT22;41083;52.932;6.674;2023-02-15T18:57:14;6.50;99.90
55213;DHT22;41083;52.932;6.674;2023-02-15T18:59:40;6.40;99.90